createdAt,value
2018-08-17T00:01:59.329Z,26.50
2018-08-17T00:04:27.383Z,26.50
2018-08-17T00:06:55.459Z,26.50
2018-08-17T00:09:23.518Z,26.50
2018-08-17T00:11:51.583Z,26.50
2018-08-17T00:14:19.659Z,26.50
2018-08-17T00:16:47.987Z,26.50
2018-08-17T00:19:16.088Z,26.50
2018-08-17T00:21:44.158Z,26.50
2018-08-17T00:24:12.245Z,26.50
2018-08-17T00:26:40.316Z,26.50
2018-08-17T00:29:08.387Z,26.50
2018-08-17T00:31:36.471Z,26.50
2018-08-17T00:34:04.535Z,26.50
2018-08-17T00:36:32.603Z,26.50
2018-08-17T00:39:00.695Z,26.50
2018-08-17T00:41:28.969Z,26.50
2018-08-17T00:43:57.074Z,26.40
2018-08-17T00:46:25.146Z,26.40
2018-08-17T00:48:53.224Z,26.40
2018-08-17T00:51:21.278Z,26.40
2018-08-17T00:53:49.351Z,26.40
2018-08-17T00:56:17.447Z,26.40
2018-08-17T00:58:45.511Z,26.40
2018-08-17T01:01:13.632Z,26.40
2018-08-17T01:03:41.691Z,26.40
2018-08-17T01:06:09.750Z,26.40
2018-08-17T01:08:37.827Z,26.40
2018-08-17T01:11:06.212Z,26.40
2018-08-17T01:13:34.294Z,26.40
2018-08-17T01:16:02.667Z,26.40
2018-08-17T01:18:30.746Z,26.40
2018-08-17T01:20:58.810Z,26.40
2018-08-17T01:23:26.891Z,26.40
2018-08-17T01:25:55.052Z,26.40
2018-08-17T01:28:23.818Z,26.40
2018-08-17T01:30:51.891Z,26.40
2018-08-17T01:33:19.982Z,26.40
2018-08-17T01:35:48.080Z,26.40
2018-08-17T01:38:16.222Z,26.40
2018-08-17T01:40:44.571Z,26.40
2018-08-17T01:43:12.631Z,26.40
2018-08-17T01:45:40.698Z,26.40
2018-08-17T01:48:08.819Z,26.40
2018-08-17T01:50:36.903Z,26.30
2018-08-17T01:53:05.156Z,26.40
2018-08-17T01:55:33.227Z,26.40
2018-08-17T01:58:01.299Z,26.40
2018-08-17T02:00:29.471Z,26.40
2018-08-17T02:02:57.538Z,26.30
2018-08-17T02:05:25.919Z,26.30
2018-08-17T02:07:54.098Z,26.30
2018-08-17T02:10:22.175Z,26.30
2018-08-17T02:12:50.236Z,26.30
2018-08-17T02:15:18.306Z,26.30
2018-08-17T02:17:46.418Z,26.30
2018-08-17T02:20:14.494Z,26.30
2018-08-17T02:22:42.943Z,26.30
2018-08-17T02:25:11.083Z,26.30
2018-08-17T02:27:39.124Z,26.30
2018-08-17T02:30:07.385Z,26.30
2018-08-17T02:32:35.450Z,26.30
2018-08-17T02:35:03.779Z,26.30
2018-08-17T02:37:31.890Z,26.30
2018-08-17T02:40:00.015Z,26.30
2018-08-17T02:42:28.086Z,26.30
2018-08-17T02:44:56.220Z,26.30
2018-08-17T02:47:24.311Z,26.30
2018-08-17T02:49:52.390Z,26.30
2018-08-17T02:52:20.519Z,26.30
2018-08-17T02:54:48.584Z,26.30
2018-08-17T02:57:16.680Z,26.30
2018-08-17T02:59:44.780Z,26.30
2018-08-17T03:02:12.846Z,26.30
2018-08-17T03:04:40.918Z,26.30
2018-08-17T03:07:09.062Z,26.30
2018-08-17T03:09:37.171Z,26.30
2018-08-17T03:12:05.260Z,26.30
2018-08-17T03:14:33.425Z,26.30
2018-08-17T03:17:01.555Z,26.30
2018-08-17T03:19:29.662Z,26.30
2018-08-17T03:21:58.695Z,26.30
2018-08-17T03:24:26.779Z,26.30
2018-08-17T03:26:54.882Z,26.30
2018-08-17T03:29:23.072Z,26.30
2018-08-17T03:31:51.212Z,26.30
2018-08-17T03:34:19.625Z,26.20
2018-08-17T03:36:47.722Z,26.20
2018-08-17T03:39:15.831Z,26.20
2018-08-17T03:41:43.935Z,26.20
2018-08-17T03:44:11.998Z,26.20
2018-08-17T03:46:40.103Z,26.20
2018-08-17T03:49:08.214Z,26.20
2018-08-17T03:51:36.304Z,26.20
2018-08-17T03:54:04.674Z,26.20
2018-08-17T03:56:32.802Z,26.20
2018-08-17T03:59:00.900Z,26.20
2018-08-17T04:01:29.005Z,26.20
2018-08-17T04:03:57.370Z,26.20
2018-08-17T04:06:25.769Z,26.20
2018-08-17T04:08:53.864Z,26.20
2018-08-17T04:11:22.272Z,26.20
2018-08-17T04:13:50.403Z,26.20
2018-08-17T04:16:18.563Z,26.20
2018-08-17T04:18:51.766Z,26.20
2018-08-17T04:21:19.895Z,26.20
2018-08-17T04:23:47.986Z,26.20
2018-08-17T04:26:16.165Z,26.20
2018-08-17T04:28:44.286Z,26.20
2018-08-17T04:31:12.415Z,26.20
2018-08-17T04:33:40.513Z,26.20
2018-08-17T04:36:08.602Z,26.20
2018-08-17T04:38:36.820Z,26.20
2018-08-17T04:41:04.919Z,26.20
2018-08-17T04:43:33.016Z,26.20
2018-08-17T04:46:01.091Z,26.20
2018-08-17T04:48:29.182Z,26.20
2018-08-17T04:50:57.283Z,26.20
2018-08-17T04:53:25.370Z,26.20
2018-08-17T04:55:53.470Z,26.20
2018-08-17T04:58:21.740Z,26.20
2018-08-17T05:00:49.857Z,26.10
2018-08-17T05:03:17.983Z,26.10
2018-08-17T05:05:46.315Z,26.10
2018-08-17T05:08:14.391Z,26.10
2018-08-17T05:10:42.479Z,26.10
2018-08-17T05:13:10.596Z,26.10
2018-08-17T05:15:38.847Z,26.10
2018-08-17T05:18:07.130Z,26.10
2018-08-17T05:20:35.216Z,26.20
2018-08-17T05:23:03.317Z,26.10
2018-08-17T05:25:31.398Z,26.10
2018-08-17T05:27:59.510Z,26.10
2018-08-17T05:30:27.606Z,26.10
2018-08-17T05:32:55.699Z,26.10
2018-08-17T05:35:23.802Z,26.10
2018-08-17T05:37:51.888Z,26.10
2018-08-17T05:40:20.017Z,26.10
2018-08-17T05:42:48.398Z,26.10
2018-08-17T05:45:16.904Z,26.10
2018-08-17T05:47:44.998Z,26.10
2018-08-17T05:50:13.070Z,26.10
2018-08-17T05:52:41.166Z,26.10
2018-08-17T05:55:09.238Z,26.10
2018-08-17T05:57:37.357Z,26.10
2018-08-17T06:00:07.766Z,26.10
2018-08-17T06:02:35.918Z,26.10
2018-08-17T06:05:05.519Z,26.10
2018-08-17T06:07:33.619Z,26.10
2018-08-17T06:10:01.721Z,26.00
2018-08-17T06:12:29.828Z,26.00
2018-08-17T06:14:57.962Z,26.00
2018-08-17T06:17:26.499Z,25.90
2018-08-17T06:19:54.815Z,25.90
2018-08-17T06:22:22.891Z,25.90
2018-08-17T06:24:51.798Z,25.90
2018-08-17T06:27:20.170Z,25.90
2018-08-17T06:29:48.527Z,25.90
2018-08-17T06:32:16.653Z,25.90
2018-08-17T06:34:44.751Z,25.90
2018-08-17T06:37:13.020Z,25.90
2018-08-17T06:39:41.030Z,25.90
2018-08-17T06:42:09.148Z,26.00
2018-08-17T06:44:37.395Z,25.90
2018-08-17T06:47:05.722Z,26.00
2018-08-17T06:49:33.823Z,26.00
2018-08-17T06:52:02.144Z,26.00
2018-08-17T06:54:30.212Z,26.10
2018-08-17T06:56:58.341Z,26.10
2018-08-17T06:59:26.367Z,26.20
2018-08-17T07:01:54.444Z,26.20
2018-08-17T07:04:22.581Z,26.20
2018-08-17T07:06:50.708Z,26.20
2018-08-17T07:09:19.009Z,26.20
2018-08-17T07:11:46.930Z,26.20
2018-08-17T07:14:15.026Z,26.20
2018-08-17T07:16:43.174Z,26.20
2018-08-17T07:19:11.231Z,26.20
2018-08-17T07:21:39.334Z,26.20
2018-08-17T07:24:07.372Z,26.20
2018-08-17T07:26:35.447Z,26.20
2018-08-17T07:29:03.540Z,26.20
2018-08-17T07:31:31.611Z,26.20
2018-08-17T07:33:59.713Z,26.20
2018-08-17T07:36:27.797Z,26.20
2018-08-17T07:38:56.203Z,26.20
2018-08-17T07:41:24.294Z,26.20
2018-08-17T07:43:52.375Z,26.20
2018-08-17T07:46:20.454Z,26.20
2018-08-17T07:48:48.779Z,26.20
2018-08-17T07:51:16.847Z,26.20
2018-08-17T07:53:45.252Z,26.20
2018-08-17T07:56:13.362Z,26.20
2018-08-17T07:58:41.472Z,26.20
2018-08-17T08:01:09.559Z,26.20
2018-08-17T08:03:37.631Z,26.20
2018-08-17T08:06:06.162Z,26.20
2018-08-17T08:08:34.264Z,26.20
2018-08-17T08:11:02.378Z,26.20
2018-08-17T08:13:30.825Z,26.20
2018-08-17T08:15:58.911Z,26.20
2018-08-17T08:18:27.027Z,26.20
2018-08-17T08:20:55.096Z,26.20
2018-08-17T08:23:26.121Z,26.20
2018-08-17T08:25:54.538Z,26.30
2018-08-17T08:28:22.898Z,26.20
2018-08-17T08:30:51.283Z,26.20
2018-08-17T08:33:19.962Z,26.30
2018-08-17T08:35:48.516Z,26.30
2018-08-17T08:38:17.959Z,26.30
2018-08-17T08:40:46.626Z,26.30
2018-08-17T08:43:14.750Z,26.30
2018-08-17T08:45:42.856Z,26.30
2018-08-17T08:48:10.946Z,26.30
2018-08-17T08:50:39.219Z,26.30
2018-08-17T08:53:08.079Z,26.30
2018-08-17T08:55:36.177Z,26.30
2018-08-17T08:58:04.475Z,26.30
2018-08-17T09:00:32.563Z,26.30
2018-08-17T09:03:00.639Z,26.30
2018-08-17T09:05:28.759Z,26.30
2018-08-17T09:07:57.258Z,26.30
2018-08-17T09:10:25.340Z,26.30
2018-08-17T09:12:53.446Z,26.30
2018-08-17T09:15:21.535Z,26.30
2018-08-17T09:17:49.658Z,26.30
2018-08-17T09:20:18.289Z,26.30
2018-08-17T09:22:46.378Z,26.30
2018-08-17T09:25:14.479Z,26.30
2018-08-17T09:27:42.547Z,26.30
2018-08-17T09:30:12.853Z,26.30
2018-08-17T09:32:41.558Z,26.30
2018-08-17T09:35:10.766Z,26.30
2018-08-17T09:37:38.829Z,26.30
2018-08-17T09:40:08.073Z,26.30
2018-08-17T09:42:36.551Z,26.30
2018-08-17T09:45:05.207Z,26.30
2018-08-17T09:47:33.331Z,26.30
2018-08-17T09:50:01.428Z,26.30
2018-08-17T09:52:29.503Z,26.30
2018-08-17T09:54:57.583Z,26.30
2018-08-17T09:57:25.709Z,26.30
2018-08-17T09:59:53.966Z,26.30
2018-08-17T10:02:25.098Z,26.30
2018-08-17T10:04:58.587Z,26.30
2018-08-17T10:07:32.170Z,26.30
2018-08-17T10:10:05.716Z,26.30
2018-08-17T10:12:33.974Z,26.30
2018-08-17T10:15:02.039Z,26.30
2018-08-17T10:17:30.142Z,26.30
2018-08-17T10:19:58.223Z,26.30
2018-08-17T10:22:26.312Z,26.30
2018-08-17T10:24:59.291Z,26.30
2018-08-17T10:27:27.367Z,26.30
2018-08-17T10:29:55.464Z,26.30
2018-08-17T10:32:23.539Z,26.40
2018-08-17T10:34:51.611Z,26.40
2018-08-17T10:37:19.743Z,26.40
2018-08-17T10:39:47.848Z,26.40
2018-08-17T10:42:15.970Z,26.50
2018-08-17T10:44:44.054Z,26.50
2018-08-17T10:47:12.143Z,26.50
2018-08-17T10:49:40.239Z,26.50
2018-08-17T10:52:08.315Z,26.40
2018-08-17T10:54:36.423Z,26.50
2018-08-17T10:57:05.068Z,26.50
2018-08-17T10:59:33.170Z,26.40
2018-08-17T11:02:01.662Z,26.40
2018-08-17T11:04:29.759Z,26.30
2018-08-17T11:06:57.843Z,26.30
2018-08-17T11:09:25.911Z,26.20
2018-08-17T11:11:53.995Z,26.20
2018-08-17T11:14:22.103Z,26.10
2018-08-17T11:16:50.244Z,26.10
2018-08-17T11:19:18.316Z,26.10
2018-08-17T11:21:46.406Z,26.00
2018-08-17T11:24:14.622Z,26.00
2018-08-17T11:26:42.827Z,26.00
2018-08-17T11:29:10.935Z,26.00
2018-08-17T11:31:39.018Z,26.10
2018-08-17T11:34:07.130Z,26.10
2018-08-17T11:36:35.238Z,26.20
2018-08-17T11:39:05.059Z,26.30
2018-08-17T11:41:33.253Z,26.30
2018-08-17T11:44:04.475Z,26.40
2018-08-17T11:46:33.107Z,26.40
2018-08-17T11:49:01.518Z,26.40
2018-08-17T11:51:29.626Z,26.40
2018-08-17T11:53:57.769Z,26.50
2018-08-17T11:56:25.827Z,26.50
2018-08-17T11:58:53.894Z,26.50
2018-08-17T12:01:27.414Z,26.50
2018-08-17T12:03:55.790Z,26.50
2018-08-17T12:06:24.519Z,26.50
2018-08-17T12:08:52.614Z,26.60
2018-08-17T12:11:20.691Z,26.60
2018-08-17T12:13:48.775Z,26.60
2018-08-17T12:16:16.897Z,26.60
2018-08-17T12:18:45.003Z,26.60
2018-08-17T12:21:13.071Z,26.60
2018-08-17T12:23:41.395Z,26.60
2018-08-17T12:26:09.479Z,26.70
2018-08-17T12:28:37.567Z,26.70
2018-08-17T12:31:05.938Z,26.70
2018-08-17T12:33:34.418Z,26.70
2018-08-17T12:36:02.505Z,26.70
2018-08-17T12:38:30.603Z,26.70
2018-08-17T12:40:59.102Z,26.70
2018-08-17T12:43:30.639Z,26.70
2018-08-17T12:45:58.706Z,26.70
2018-08-17T12:48:26.790Z,26.80
2018-08-17T12:50:59.103Z,26.80
2018-08-17T12:53:27.203Z,26.80
2018-08-17T12:55:55.304Z,26.80
2018-08-17T12:58:23.379Z,26.80
2018-08-17T13:00:51.443Z,26.80
2018-08-17T13:03:19.531Z,26.80
2018-08-17T13:05:47.669Z,26.80
2018-08-17T13:08:15.735Z,26.80
2018-08-17T13:10:43.806Z,26.80
2018-08-17T13:13:11.911Z,26.80
2018-08-17T13:15:45.333Z,26.80
2018-08-17T13:18:17.688Z,26.80
2018-08-17T13:20:45.778Z,26.80
2018-08-17T13:23:13.884Z,26.80
2018-08-17T13:25:42.078Z,26.80
2018-08-17T13:28:10.438Z,26.80
2018-08-17T13:30:38.530Z,26.80
2018-08-17T13:33:06.635Z,26.80
2018-08-17T13:35:34.700Z,26.80
2018-08-17T13:38:02.791Z,26.70
2018-08-17T13:40:30.891Z,26.80
2018-08-17T13:42:59.209Z,26.80
2018-08-17T13:45:27.517Z,26.80
2018-08-17T13:47:55.877Z,26.80
2018-08-17T13:50:23.950Z,26.80
2018-08-17T13:52:52.039Z,26.80
2018-08-17T13:55:20.115Z,26.80
2018-08-17T13:57:48.250Z,26.80
2018-08-17T14:00:16.315Z,26.70
2018-08-17T14:02:44.391Z,26.70
2018-08-17T14:05:12.516Z,26.70
2018-08-17T14:07:40.610Z,26.70
2018-08-17T14:10:09.935Z,26.70
2018-08-17T14:12:38.595Z,26.70
2018-08-17T14:15:07.890Z,26.70
2018-08-17T14:17:36.487Z,26.70
2018-08-17T14:20:07.288Z,26.70
2018-08-17T14:22:35.755Z,26.70
2018-08-17T14:25:04.103Z,26.70
2018-08-17T14:27:32.187Z,26.70
2018-08-17T14:30:00.279Z,26.70
2018-08-17T14:32:28.517Z,26.70
2018-08-17T14:34:56.607Z,26.70
2018-08-17T14:37:24.702Z,26.70
2018-08-17T14:39:52.817Z,26.70
2018-08-17T14:42:20.906Z,26.70
2018-08-17T14:44:49.002Z,26.80
2018-08-17T14:47:17.090Z,26.80
2018-08-17T14:49:45.189Z,26.80
2018-08-17T14:52:13.519Z,26.80
2018-08-17T14:54:41.659Z,26.80
2018-08-17T14:57:09.771Z,26.70
2018-08-17T14:59:37.879Z,26.70
2018-08-17T15:02:06.006Z,26.70
2018-08-17T15:04:34.091Z,26.70
2018-08-17T15:07:02.522Z,26.60
2018-08-17T15:09:30.618Z,26.60
2018-08-17T15:11:58.716Z,26.60
2018-08-17T15:14:26.798Z,26.60
2018-08-17T15:16:54.932Z,26.60
2018-08-17T15:19:23.063Z,26.50
2018-08-17T15:21:51.171Z,26.50
2018-08-17T15:24:19.239Z,26.50
2018-08-17T15:26:47.458Z,26.50
2018-08-17T15:29:15.563Z,26.50
2018-08-17T15:31:43.631Z,26.50
2018-08-17T15:34:11.747Z,26.50
2018-08-17T15:36:39.847Z,26.50
2018-08-17T15:39:08.407Z,26.50
2018-08-17T15:41:41.507Z,26.50
2018-08-17T15:44:13.829Z,26.50
2018-08-17T15:46:41.914Z,26.50
2018-08-17T15:49:13.653Z,26.50
2018-08-17T15:51:41.720Z,26.50
2018-08-17T15:54:09.794Z,26.50
2018-08-17T15:56:37.898Z,26.50
2018-08-17T15:59:05.975Z,26.50
2018-08-17T16:01:34.234Z,26.40
2018-08-17T16:04:02.155Z,26.40
2018-08-17T16:06:30.256Z,26.40
2018-08-17T16:08:58.355Z,26.40
2018-08-17T16:11:26.450Z,26.40
2018-08-17T16:13:54.510Z,26.40
2018-08-17T16:16:22.625Z,26.50
2018-08-17T16:18:50.767Z,26.40
2018-08-17T16:21:18.873Z,26.40
2018-08-17T16:23:46.967Z,26.50
2018-08-17T16:26:15.055Z,26.50
2018-08-17T16:28:43.135Z,26.50
2018-08-17T16:31:11.238Z,26.50
2018-08-17T16:33:39.366Z,26.50
2018-08-17T16:36:07.487Z,26.50
2018-08-17T16:38:36.524Z,26.50
2018-08-17T16:41:04.610Z,26.50
2018-08-17T16:43:43.334Z,26.50
2018-08-17T16:46:11.824Z,26.50
2018-08-17T16:48:40.927Z,26.50
2018-08-17T16:51:09.302Z,26.50
2018-08-17T16:53:37.383Z,26.50
2018-08-17T16:56:05.496Z,26.50
2018-08-17T16:58:33.609Z,26.50
2018-08-17T17:01:01.910Z,26.50
2018-08-17T17:03:29.978Z,26.50
2018-08-17T17:06:01.081Z,26.60
2018-08-17T17:08:29.704Z,26.70
2018-08-17T17:10:58.039Z,26.80
2018-08-17T17:13:26.357Z,26.80
2018-08-17T17:15:54.435Z,26.70
2018-08-17T17:18:22.555Z,26.70
2018-08-17T17:20:50.720Z,26.60
2018-08-17T17:23:18.781Z,26.60
2018-08-17T17:25:46.831Z,26.60
2018-08-17T17:28:15.159Z,26.60
2018-08-17T17:30:51.527Z,26.60
2018-08-17T17:33:20.143Z,26.60
2018-08-17T17:35:48.269Z,26.60
2018-08-17T17:38:16.366Z,26.60
2018-08-17T17:40:44.438Z,26.60
2018-08-17T17:43:12.521Z,26.60
2018-08-17T17:45:40.983Z,26.60
2018-08-17T17:48:09.498Z,26.60
2018-08-17T17:50:37.915Z,26.60
2018-08-17T17:53:06.139Z,26.60
2018-08-17T17:55:40.768Z,26.60
2018-08-17T17:58:09.197Z,26.60
2018-08-17T18:00:37.238Z,26.60
2018-08-17T18:03:05.342Z,26.60
2018-08-17T18:05:33.415Z,26.60
2018-08-17T18:08:07.036Z,26.60
2018-08-17T18:10:35.114Z,26.60
2018-08-17T18:13:03.393Z,26.60
2018-08-17T18:15:31.433Z,26.60
2018-08-17T18:17:59.531Z,26.50
2018-08-17T18:20:27.619Z,26.50
2018-08-17T18:22:55.733Z,26.50
2018-08-17T18:25:23.802Z,26.50
2018-08-17T18:27:51.882Z,26.50
2018-08-17T18:30:19.979Z,26.50
2018-08-17T18:32:48.083Z,26.50
2018-08-17T18:35:16.198Z,26.50
2018-08-17T18:37:44.522Z,26.50
2018-08-17T18:40:12.723Z,26.50
2018-08-17T18:42:40.800Z,26.50
2018-08-17T18:45:09.083Z,26.50
2018-08-17T18:47:37.709Z,26.50
2018-08-17T18:50:06.686Z,26.50
2018-08-17T18:52:34.926Z,26.50
2018-08-17T18:55:03.220Z,26.50
2018-08-17T18:57:31.298Z,26.50
2018-08-17T18:59:59.435Z,26.50
2018-08-17T19:02:27.556Z,26.50
2018-08-17T19:04:55.645Z,26.50
2018-08-17T19:07:23.726Z,26.50
2018-08-17T19:09:51.863Z,26.50
2018-08-17T19:12:19.942Z,26.50
2018-08-17T19:14:49.296Z,26.50
2018-08-17T19:17:22.946Z,26.50
2018-08-17T19:19:52.095Z,26.50
2018-08-17T19:22:20.796Z,26.50
2018-08-17T19:24:49.695Z,26.50
2018-08-17T19:27:26.078Z,26.50
2018-08-17T19:29:54.429Z,26.50
2018-08-17T19:32:22.778Z,26.50
2018-08-17T19:34:50.819Z,26.50
2018-08-17T19:37:18.895Z,26.50
2018-08-17T19:39:47.817Z,26.50
2018-08-17T19:42:16.392Z,26.50
2018-08-17T19:44:44.835Z,26.50
2018-08-17T19:47:12.933Z,26.50
2018-08-17T19:49:41.038Z,26.50
2018-08-17T19:52:09.110Z,26.50
2018-08-17T19:54:37.193Z,26.50
2018-08-17T19:57:05.596Z,26.50
2018-08-17T19:59:33.703Z,26.50
2018-08-17T20:02:01.803Z,26.50
2018-08-17T20:04:30.659Z,26.50
2018-08-17T20:06:59.507Z,26.50
2018-08-17T20:09:27.821Z,26.50
2018-08-17T20:11:55.926Z,26.50
2018-08-17T20:14:24.020Z,26.50
2018-08-17T20:16:52.131Z,26.50
2018-08-17T20:19:20.203Z,26.50
2018-08-17T20:21:48.311Z,26.50
2018-08-17T20:24:16.399Z,26.50
2018-08-17T20:26:44.636Z,26.50
2018-08-17T20:29:12.578Z,26.50
2018-08-17T20:31:43.355Z,26.50
2018-08-17T20:34:11.453Z,26.50
2018-08-17T20:36:39.543Z,26.50
2018-08-17T20:39:10.646Z,26.50
2018-08-17T20:41:38.762Z,26.50
2018-08-17T20:44:07.432Z,26.50
2018-08-17T20:46:35.722Z,26.50
2018-08-17T20:49:04.088Z,26.50
2018-08-17T20:51:32.167Z,26.50
2018-08-17T20:54:01.608Z,26.50
2018-08-17T20:56:29.802Z,26.50
2018-08-17T20:58:57.878Z,26.50
2018-08-17T21:01:25.960Z,26.50
2018-08-17T21:03:54.382Z,26.50
2018-08-17T21:06:22.491Z,26.50
2018-08-17T21:08:50.582Z,26.50
2018-08-17T21:11:18.713Z,26.50
2018-08-17T21:13:47.177Z,26.50
2018-08-17T21:16:15.279Z,26.50
2018-08-17T21:18:43.349Z,26.50
2018-08-17T21:21:11.455Z,26.50
2018-08-17T21:23:39.523Z,26.50
2018-08-17T21:26:08.302Z,26.50
2018-08-17T21:28:36.378Z,26.50
2018-08-17T21:31:04.451Z,26.50
2018-08-17T21:33:32.543Z,26.50
2018-08-17T21:36:00.624Z,26.50
2018-08-17T21:38:28.730Z,26.50
2018-08-17T21:40:56.824Z,26.60
2018-08-17T21:43:24.929Z,26.50
2018-08-17T21:45:57.439Z,26.50
2018-08-17T21:48:27.745Z,26.50
2018-08-17T21:50:56.111Z,26.50
2018-08-17T21:53:24.235Z,26.50
2018-08-17T21:55:52.359Z,26.50
2018-08-17T21:58:20.434Z,26.50
2018-08-17T22:00:48.565Z,26.50
2018-08-17T22:03:26.939Z,26.50
2018-08-17T22:05:55.038Z,26.50
2018-08-17T22:08:23.124Z,26.50
2018-08-17T22:10:51.195Z,26.50
2018-08-17T22:13:31.609Z,26.50
2018-08-17T22:16:00.178Z,26.50
2018-08-17T22:18:28.661Z,26.50
2018-08-17T22:20:56.743Z,26.50
2018-08-17T22:23:25.014Z,26.50
2018-08-17T22:25:53.402Z,26.50
2018-08-17T22:28:21.518Z,26.50
2018-08-17T22:30:49.639Z,26.50
2018-08-17T22:33:18.042Z,26.50
2018-08-17T22:35:46.214Z,26.50
2018-08-17T22:38:14.271Z,26.50
2018-08-17T22:40:42.414Z,26.50
2018-08-17T22:43:10.527Z,26.50
2018-08-17T22:45:38.635Z,26.50
2018-08-17T22:48:06.783Z,26.40
2018-08-17T22:50:34.826Z,26.30
2018-08-17T22:53:03.201Z,26.30
2018-08-17T22:55:31.279Z,26.30
2018-08-17T22:57:59.913Z,26.30
2018-08-17T23:00:29.223Z,26.30
2018-08-17T23:02:58.875Z,26.30
2018-08-17T23:05:28.771Z,26.30
2018-08-17T23:07:57.135Z,26.30
2018-08-17T23:10:26.155Z,26.30
2018-08-17T23:12:54.806Z,26.30
2018-08-17T23:15:22.906Z,26.30
2018-08-17T23:17:53.098Z,26.20
2018-08-17T23:20:27.015Z,26.20
2018-08-17T23:22:56.238Z,26.20
2018-08-17T23:25:24.349Z,26.10
2018-08-17T23:27:52.631Z,26.10
2018-08-17T23:30:20.723Z,26.10
2018-08-17T23:32:49.006Z,26.10
2018-08-17T23:35:17.118Z,26.20
2018-08-17T23:37:45.275Z,26.20
2018-08-17T23:40:13.669Z,26.20
2018-08-17T23:42:41.766Z,26.30
2018-08-17T23:45:13.338Z,26.30
2018-08-17T23:47:41.493Z,26.30
2018-08-17T23:50:10.902Z,26.20
2018-08-17T23:52:38.993Z,26.20
2018-08-17T23:55:08.535Z,26.20
2018-08-17T23:57:36.626Z,26.20
